Flight Track Log - Related Links

Times and Time Zones

All times are in EDT time to prevent confusion due to time zone crossing. See the UAE748 flight status page for this flight to view local times or setup timezone preferences in your user account.

Time Position Orientation Groundspeed Altitude Reporting Facility
EDT Latitude Longitude Course Direction KTS MPH feet Rate Location/Type
Sun 10:21:15 AM 36.7063 12.5841 95° East  Level Estimated
Sun 10:22:15 AM 36.6951 12.7383 95° East  Level Estimated
Sun 10:23:15 AM 36.6838 12.8925 95° East  Level Estimated
Sun 10:24:15 AM 36.6723 13.0466 95° East  Level Estimated
Sun 10:25:15 AM 36.6606 13.2007 95° East  Level Estimated
Sun 10:26:15 AM 36.6487 13.3547 96° East  Level Estimated
Sun 10:27:15 AM 36.6366 13.5087 96° East  Level Estimated
Sun 10:28:15 AM 36.6243 13.6627 96° East  Level Estimated
Sun 10:29:15 AM 36.6118 13.8166 96° East  Level Estimated
Sun 10:30:15 AM 36.5991 13.9704 96° East  Level Estimated
Sun 10:31:15 AM 36.5862 14.1242 96° East  Level Estimated
Sun 10:32:15 AM 36.5731 14.2779 96° East  Level Estimated
Sun 10:33:15 AM 36.5598 14.4316 96° East  Level Estimated
Sun 10:34:15 AM 36.5463 14.5852 96° East  Level Estimated
Sun 10:35:15 AM 36.5326 14.7388 96° East  Level Estimated
Sun 10:36:15 AM 36.5187 14.8924 96° East  Level Estimated
Sun 10:37:15 AM 36.5046 15.0458 97° East  Level Estimated
Sun 10:38:15 AM 36.4904 15.1992 97° East  Level Estimated
Sun 10:39:15 AM 36.4759 15.3526 97° East  Level Estimated
Sun 10:40:15 AM 36.4612 15.5059 97° East  Level Estimated
Sun 10:41:15 AM 36.4464 15.6591 97° East  Level Estimated
Sun 10:42:15 AM 36.4313 15.8123 97° East  Level Estimated
Sun 10:43:15 AM 36.4160 15.9654 97° East  Level Estimated
Sun 10:44:15 AM 36.4006 16.1185 97° East  Level Estimated
Sun 10:45:15 AM 36.3849 16.2715 97° East  Level Estimated
Sun 10:46:15 AM 36.3691 16.4244 97° East  Level Estimated
Sun 10:47:15 AM 36.3531 16.5773 97° East  Level Estimated
Sun 10:48:15 AM 36.3368 16.7301 98° East  Level Estimated
Sun 10:49:15 AM 36.3204 16.8828 98° East  Level Estimated
Sun 10:50:15 AM 36.3038 17.0355 98° East  Level Estimated
Sun 10:51:15 AM 36.2869 17.1881 98° East  Level Estimated
Sun 10:52:15 AM 36.2699 17.3407 98° East  Level Estimated
Sun 10:53:15 AM 36.2527 17.4932 98° East  Level Estimated
Sun 10:54:15 AM 36.2353 17.6456 98° East  Level Estimated
Sun 10:55:15 AM 36.2178 17.7979 98° East  Level Estimated
Sun 10:56:15 AM 36.2000 17.9502 98° East  Level Estimated
Sun 10:57:15 AM 36.1820 18.1024 98° East  Level Estimated
Sun 10:58:15 AM 36.1638 18.2545 98° East  Level Estimated
Sun 10:59:15 AM 36.1455 18.4066 99° East  Level Estimated
Sun 11:00:15 AM 36.1269 18.5586 99° East  Level Estimated
Sun 11:01:15 AM 36.1082 18.7105 99° East  Level Estimated
Sun 11:02:15 AM 36.0892 18.8624 99° East  Level Estimated
Sun 11:03:15 AM 36.0701 19.0142 99° East  Level Estimated
Sun 11:04:15 AM 36.0508 19.1658 99° East  Level Estimated
Sun 11:05:15 AM 36.0313 19.3175 99° East  Level Estimated
Sun 11:06:15 AM 36.0116 19.4690 99° East  Level Estimated
Sun 11:07:15 AM 35.9917 19.6205 99° East  Level Estimated
Sun 11:08:15 AM 35.9716 19.7719 99° East  Level Estimated
Sun 11:09:15 AM 35.9513 19.9232 99° East  Level Estimated
Sun 11:10:15 AM 35.9309 20.0745 100° East  Level Estimated
Sun 11:11:15 AM 35.9102 20.2256 100° East  Level Estimated
Sun 11:12:15 AM 35.8894 20.3767 100° East  Level Estimated
Sun 11:13:15 AM 35.8684 20.5277 100° East  Level Estimated
Sun 11:14:15 AM 35.8471 20.6787 100° East  Level Estimated
Sun 11:15:15 AM 35.8257 20.8295 100° East  Level Estimated
Sun 11:16:15 AM 35.8041 20.9803 100° East  Level Estimated
Sun 11:17:15 AM 35.7823 21.1309 100° East  Level Estimated
Sun 11:18:15 AM 35.7604 21.2815 100° East  Level Estimated
Sun 11:19:15 AM 35.7382 21.4321 100° East  Level Estimated
Sun 11:20:15 AM 35.7159 21.5825 100° East  Level Estimated
Sun 11:21:15 AM 35.6933 21.7328 101° East  Level Estimated
Sun 11:22:15 AM 35.6706 21.8831 101° East  Level Estimated
Sun 11:23:15 AM 35.6477 22.0333 101° East  Level Estimated
Sun 11:24:15 AM 35.6246 22.1833 101° East  Level Estimated
Sun 11:25:15 AM 35.6013 22.3333 101° East  Level Estimated
Sun 11:26:15 AM 35.5779 22.4832 101° East  Level Estimated
Sun 11:27:15 AM 35.5542 22.6331 101° East  Level Estimated
Sun 11:28:15 AM 35.5304 22.7828 101° East  Level Estimated
Sun 11:29:15 AM 35.5064 22.9325 101° East  Level Estimated
Sun 11:30:15 AM 35.4822 23.0820 101° East  Level Estimated
Sun 11:31:15 AM 35.4578 23.2315 101° East  Level Estimated
Sun 11:32:15 AM 35.4332 23.3809 101° East  Level Estimated
Sun 11:33:15 AM 35.4084 23.5301 102° East  Level Estimated
Sun 11:34:15 AM 35.3835 23.6793 102° East  Level Estimated
Sun 11:35:15 AM 35.3584 23.8284 102° East  Level Estimated
Sun 11:36:15 AM 35.3331 23.9774 102° East  Level Estimated
Sun 11:37:15 AM 35.3076 24.1264 102° East  Level Estimated
Sun 11:38:15 AM 35.2819 24.2752 102° East  Level Estimated
Sun 11:39:15 AM 35.2560 24.4239 102° East  Level Estimated
Sun 11:40:15 AM 35.2300 24.5725 102° East  Level Estimated
Sun 11:41:15 AM 35.2038 24.7211 102° East  Level Estimated
Sun 11:42:15 AM 35.1774 24.8695 102° East  Level Estimated
Sun 11:43:15 AM 35.1508 25.0178 102° East  Level Estimated
Sun 11:44:15 AM 35.1240 25.1661 102° East  Level Estimated
Sun 11:45:15 AM 35.0971 25.3142 103° East  Level Estimated
Sun 11:46:15 AM 35.0700 25.4623 103° East  Level Estimated
Sun 11:47:15 AM 35.0427 25.6102 103° East  Level Estimated
Sun 11:48:15 AM 35.0152 25.7581 103° East  Level Estimated
Sun 11:49:15 AM 34.9875 25.9058 103° East  Level Estimated
Sun 11:50:15 AM 34.9597 26.0535 103° East  Level Estimated
Sun 11:51:15 AM 34.9317 26.2010 103° East  Level Estimated
Sun 11:52:15 AM 34.9035 26.3485 103° East  Level Estimated
Sun 11:53:15 AM 34.8751 26.4958 103° East  Level Estimated
Sun 11:54:15 AM 34.8466 26.6431 103° East  Level Estimated
Sun 11:55:15 AM 34.8178 26.7902 103° East  Level Estimated
Sun 11:56:15 AM 34.7889 26.9372 104° East  Level Estimated
Sun 11:57:15 AM 34.7598 27.0842 104° East  Level Estimated
Sun 11:58:15 AM 34.7306 27.2310 104° East  Level Estimated
Sun 11:59:15 AM 34.7011 27.3777 104° East  Level Estimated
Sun 12:00:15 PM 34.6715 27.5244 104° East  Level Estimated
Sun 12:01:15 PM 34.6418 27.6709 104° East  Level Estimated
Sun 12:02:15 PM 34.6118 27.8173 104° East  Level Estimated
Sun 12:03:15 PM 34.5816 27.9636 104° East  Level Estimated
Sun 12:04:15 PM 34.5513 28.1098 104° East  Level Estimated
Sun 12:05:15 PM 34.5209 28.2559 104° East  Level Estimated
Sun 12:06:15 PM 34.4902 28.4019 104° East  Level Estimated
Sun 12:07:15 PM 34.4594 28.5478 104° East  Level Estimated
Sun 12:08:15 PM 34.4283 28.6935 105° East  Level Estimated
Sun 12:09:15 PM 34.3972 28.8392 105° East  Level Estimated
Sun 12:10:15 PM 34.3658 28.9847 105° East  Level Estimated
Sun 12:11:15 PM 34.3343 29.1302 105° East  Level Estimated
Sun 12:12:15 PM 34.3026 29.2755 105° East  Level Estimated
Sun 12:13:15 PM 34.2707 29.4207 105° East  Level Estimated
Sun 12:14:15 PM 34.2387 29.5658 105° East  Level Estimated
Sun 12:15:15 PM 34.2065 29.7108 105° East  Level Estimated
Sun 12:16:15 PM 34.1741 29.8557 105° East  Level Estimated
Sun 12:17:15 PM 34.1416 30.0005 105° East  Level Estimated
Sun 12:18:15 PM 34.1088 30.1452 105° East  Level Estimated
Sun 12:19:15 PM 34.0760 30.2897 105° East  Level Estimated
Sun 12:20:15 PM 34.0429 30.4342 105° East  Level Estimated
Sun 12:21:15 PM 34.0097 30.5785 106° East  Level Estimated
Sun 12:22:15 PM 33.9763 30.7227 106° East  Level Estimated
Sun 12:23:15 PM 33.9427 30.8668 106° East  Level Estimated
Sun 12:24:15 PM 33.9090 31.0108 106° East  Level Estimated
Sun 12:25:15 PM 33.8751 31.1547 106° East  Level Estimated
Sun 12:26:15 PM 33.8410 31.2985 106° East  Level Estimated
Sun 12:27:15 PM 33.8068 31.4421 106° East  Level Estimated
Sun 12:28:15 PM 33.7724 31.5856 106° East  Level Estimated
Sun 12:29:15 PM 33.7378 31.7290 106° East  Level Estimated
Sun 12:30:15 PM 33.7031 31.8724 106° East  Level Estimated
Sun 12:31:15 PM 33.6682 32.0155 106° East  Level Estimated
Sun 12:32:15 PM 33.6331 32.1586 106° East  Level Estimated
Sun 12:33:15 PM 33.5979 32.3016 107° East  Level Estimated
Sun 12:34:15 PM 33.5625 32.4444 107° East  Level Estimated
Sun 12:35:15 PM 33.5270 32.5871 107° East  Level Estimated
Sun 12:36:15 PM 33.4912 32.7297 107° East  Level Estimated
Sun 12:37:15 PM 33.4554 32.8722 107° East  Level Estimated
Sun 12:38:15 PM 33.4193 33.0145 107° East  Level Estimated
Sun 12:39:15 PM 33.3831 33.1568 107° East  Level Estimated
Sun 12:40:15 PM 33.3467 33.2989 107° East  Level Estimated
Sun 12:41:15 PM 33.3102 33.4409 107° East  Level Estimated
Sun 12:42:15 PM 33.2735 33.5828 107° East  Level Estimated
Sun 12:43:15 PM 33.2367 33.7246 107° East  Level Estimated
Sun 12:44:15 PM 33.1997 33.8662 107° East  Level Estimated
Sun 12:45:15 PM 33.1625 34.0078 107° East  Level Estimated
Sun 12:46:15 PM 33.1252 34.1492 108° East  Level Estimated
Sun 12:47:15 PM 33.0877 34.2905 108° East  Level Estimated
Sun 12:48:15 PM 33.0500 34.4316 108° East  Level Estimated
Sun 12:49:15 PM 33.0122 34.5727 108° East  Level Estimated
Sun 12:50:15 PM 32.9742 34.7136 108° East  Level Estimated
Sun 12:51:15 PM 32.9361 34.8544 108° East  Level Estimated
Sun 12:52:15 PM 32.8978 34.9951 108° East  Level Estimated
Sun 12:53:15 PM 32.8594 35.1357 108° East  Level Estimated
Sun 12:54:15 PM 32.8208 35.2761 108° East  Level Estimated
Sun 12:55:15 PM 32.7820 35.4164 108° East  Level Estimated
Sun 12:56:15 PM 32.7431 35.5566 108° East  Level Estimated
Sun 12:57:15 PM 32.7040 35.6967 108° East  Level Estimated
Sun 12:58:15 PM 32.6648 35.8366 108° East  Level Estimated
Sun 12:59:15 PM 32.6255 35.9765 109° East  Level Estimated
Sun 01:00:15 PM 32.5859 36.1162 109° East  Level Estimated
Sun 01:01:15 PM 32.5462 36.2557 109° East  Level Estimated
Sun 01:02:15 PM 32.5064 36.3952 109° East  Level Estimated
Sun 01:03:15 PM 32.4664 36.5345 109° East  Level Estimated
Sun 01:04:15 PM 32.4262 36.6737 109° East  Level Estimated
Sun 01:05:15 PM 32.3859 36.8128 109° East  Level Estimated
Sun 01:06:15 PM 32.3455 36.9518 109° East  Level Estimated
Sun 01:07:15 PM 32.3049 37.0906 109° East  Level Estimated
Sun 01:08:15 PM 32.2641 37.2293 109° East  Level Estimated
Sun 01:09:15 PM 32.2232 37.3679 109° East  Level Estimated
Sun 01:10:15 PM 32.1822 37.5064 109° East  Level Estimated
Sun 01:11:15 PM 32.1409 37.6447 109° East  Level Estimated
Sun 01:12:15 PM 32.0996 37.7829 109° East  Level Estimated
Sun 01:13:15 PM 32.0581 37.9210 110° East  Level Estimated
Sun 01:14:15 PM 32.0164 38.0590 110° East  Level Estimated
Sun 01:15:15 PM 31.9746 38.1968 110° East  Level Estimated
Sun 01:16:15 PM 31.9326 38.3345 110° East  Level Estimated
Sun 01:17:15 PM 31.8905 38.4721 110° East  Level Estimated
Sun 01:18:15 PM 31.8483 38.6096 110° East  Level Estimated
Sun 01:19:15 PM 31.8059 38.7469 110° East  Level Estimated
Sun 01:20:15 PM 31.7633 38.8841 110° East  Level Estimated
Sun 01:21:15 PM 31.7206 39.0212 110° East  Level Estimated
Sun 01:22:15 PM 31.6778 39.1581 110° East  Level Estimated
Sun 01:23:15 PM 31.6348 39.2949 110° East  Level Estimated
Sun 01:24:15 PM 31.5917 39.4316 110° East  Level Estimated
Sun 01:25:15 PM 31.5484 39.5682 110° East  Level Estimated
Sun 01:26:15 PM 31.5049 39.7047 111° Southeast  Level Estimated
Sun 01:27:15 PM 31.4614 39.8410 111° Southeast  Level Estimated
Sun 01:28:15 PM 31.4177 39.9772 111° Southeast  Level Estimated
Sun 01:29:15 PM 31.3738 40.1132 111° Southeast  Level Estimated
Sun 01:30:15 PM 31.3298 40.2492 111° Southeast  Level Estimated
Sun 01:31:15 PM 31.2857 40.3850 111° Southeast  Level Estimated
Sun 01:32:15 PM 31.2414 40.5206 111° Southeast  Level Estimated
Sun 01:33:15 PM 31.1969 40.6562 111° Southeast  Level Estimated
Sun 01:34:15 PM 31.1524 40.7916 111° Southeast  Level Estimated
Sun 01:35:15 PM 31.1077 40.9269 111° Southeast  Level Estimated
Sun 01:36:15 PM 31.0628 41.0621 111° Southeast  Level Estimated
Sun 01:37:15 PM 31.0178 41.1971 111° Southeast  Level Estimated
Sun 01:38:15 PM 30.9727 41.3321 111° Southeast  Level Estimated
Sun 01:39:15 PM 30.9274 41.4669 111° Southeast  Level Estimated
Sun 01:40:15 PM 30.8820 41.6015 111° Southeast  Level Estimated
Sun 01:41:15 PM 30.8364 41.7360 112° Southeast  Level Estimated
Sun 01:42:15 PM 30.7907 41.8704 112° Southeast  Level Estimated
Sun 01:43:15 PM 30.7449 42.0047 112° Southeast  Level Estimated
Sun 01:44:15 PM 30.6989 42.1389 112° Southeast  Level Estimated
Sun 01:45:15 PM 30.6528 42.2729 112° Southeast  Level Estimated
Sun 01:46:15 PM 30.6066 42.4068 112° Southeast  Level Estimated
Sun 01:47:15 PM 30.5602 42.5406 112° Southeast  Level Estimated
Sun 01:48:15 PM 30.5137 42.6742 112° Southeast  Level Estimated
Sun 01:49:15 PM 30.4670 42.8077 112° Southeast  Level Estimated
Sun 01:50:15 PM 30.4202 42.9411 112° Southeast  Level Estimated
Sun 01:51:15 PM 30.3733 43.0743 112° Southeast  Level Estimated
Sun 01:52:15 PM 30.3262 43.2075 112° Southeast  Level Estimated
Sun 01:53:15 PM 30.2790 43.3405 112° Southeast  Level Estimated
Sun 01:54:15 PM 30.2317 43.4733 112° Southeast  Level Estimated
Sun 01:55:15 PM 30.1842 43.6061 113° Southeast  Level Estimated
Sun 01:56:15 PM 30.1367 43.7387 113° Southeast  Level Estimated
Sun 01:57:15 PM 30.0889 43.8712 113° Southeast  Level Estimated
Sun 01:58:15 PM 30.0411 44.0035 113° Southeast  Level Estimated
Sun 01:59:15 PM 29.9931 44.1357 113° Southeast  Level Estimated
Sun 02:00:15 PM 29.9449 44.2678 113° Southeast  Level Estimated
Sun 02:01:15 PM 29.8967 44.3998 113° Southeast  Level Estimated
Sun 02:02:15 PM 29.8483 44.5317 113° Southeast  Level Estimated
Sun 02:03:15 PM 29.7998 44.6634 113° Southeast  Level Estimated
Sun 02:04:15 PM 29.7511 44.7950 113° Southeast  Level Estimated
Sun 02:05:15 PM 29.7023 44.9264 113° Southeast  Level Estimated
Sun 02:06:15 PM 29.6534 45.0578 113° Southeast  Level Estimated
Sun 02:07:15 PM 29.6044 45.1890 113° Southeast  Level Estimated
Sun 02:08:15 PM 29.5552 45.3200 113° Southeast  Level Estimated
Sun 02:09:15 PM 29.5059 45.4510 113° Southeast  Level Estimated
Sun 02:10:15 PM 29.4565 45.5818 113° Southeast  Level Estimated
Sun 02:11:15 PM 29.4069 45.7125 114° Southeast  Level Estimated
Sun 02:12:15 PM 29.3572 45.8431 114° Southeast  Level Estimated
Sun 02:13:15 PM 29.3074 45.9735 114° Southeast  Level Estimated
Sun 02:14:15 PM 29.2575 46.1038 114° Southeast  Level Estimated
Sun 02:15:15 PM 29.2074 46.2340 114° Southeast  Level Estimated
Sun 02:16:15 PM 29.1572 46.3641 114° Southeast  Level Estimated
Sun 02:17:15 PM 29.1069 46.4940 114° Southeast  Level Estimated
Sun 02:18:15 PM 29.0565 46.6238 114° Southeast  Level Estimated
Sun 02:19:15 PM 29.0059 46.7535 114° Southeast  Level Estimated
Sun 02:20:15 PM 28.9552 46.8830 114° Southeast  Level Estimated
Sun 02:21:15 PM 28.9044 47.0125 114° Southeast  Level Estimated
Sun 02:22:15 PM 28.8535 47.1418 114° Southeast  Level Estimated
Sun 02:23:15 PM 28.8024 47.2709 114° Southeast  Level Estimated
Sun 02:24:15 PM 28.7512 47.4000 114° Southeast  Level Estimated
Sun 02:25:15 PM 28.6999 47.5289 114° Southeast  Level Estimated
Sun 02:26:15 PM 28.6485 47.6577 115° Southeast  Level Estimated
Sun 02:27:15 PM 28.5970 47.7863 115° Southeast  Level Estimated
Sun 02:28:15 PM 28.5453 47.9149 115° Southeast  Level Estimated
Sun 02:29:15 PM 28.4935 48.0433 115° Southeast  Level Estimated
Sun 02:30:15 PM 28.4416 48.1716 115° Southeast  Level Estimated
Sun 02:31:15 PM 28.3896 48.2997 115° Southeast  Level Estimated
Sun 02:32:15 PM 28.3374 48.4278 115° Southeast  Level Estimated
Sun 02:33:15 PM 28.2852 48.5557 115° Southeast  Level Estimated
Sun 02:34:15 PM 28.2328 48.6834 115° Southeast  Level Estimated
Sun 02:35:15 PM 28.1803 48.8111 115° Southeast  Level Estimated
Sun 02:36:15 PM 28.1276 48.9386 115° Southeast  Level Estimated
Sun 02:37:15 PM 28.0749 49.0660 115° Southeast  Level Estimated
Sun 02:38:15 PM 28.0220 49.1933 115° Southeast  Level Estimated
Sun 02:39:15 PM 27.9690 49.3205 115° Southeast  Level Estimated
Sun 02:40:15 PM 27.9159 49.4475 115° Southeast  Level Estimated
Sun 02:41:15 PM 27.8627 49.5744 115° Southeast  Level Estimated
Sun 02:42:15 PM 27.8094 49.7012 115° Southeast  Level Estimated
Sun 02:43:15 PM 27.7560 49.8278 116° Southeast  Level Estimated
Sun 02:44:15 PM 27.7024 49.9544 116° Southeast  Level Estimated
Sun 02:45:15 PM 27.6487 50.0808 116° Southeast  Level Estimated
Sun 02:46:15 PM 27.5949 50.2071 116° Southeast  Level Estimated
Sun 02:47:15 PM 27.5410 50.3332 116° Southeast  Level Estimated
Sun 02:48:15 PM 27.4870 50.4593 116° Southeast  Level Estimated
Sun 02:49:15 PM 27.4329 50.5852 116° Southeast  Level Estimated
Sun 02:50:15 PM 27.3787 50.7110 116° Southeast  Level Estimated
Sun 02:51:15 PM 27.3243 50.8366 116° Southeast  Level Estimated
Sun 02:52:15 PM 27.2698 50.9622 116° Southeast  Level Estimated
Sun 02:53:15 PM 27.2153 51.0876 116° Southeast  Level Estimated
Sun 02:54:15 PM 27.1606 51.2129 116° Southeast  Level Estimated
Sun 02:55:15 PM 27.1058 51.3381 116° Southeast  Level Estimated
Sun 02:56:15 PM 27.0508 51.4631 116° Southeast  Level Estimated
Sun 02:57:15 PM 26.9958 51.5880 116° Southeast  Level Estimated
Sun 02:58:15 PM 26.9407 51.7128 116° Southeast  Level Estimated
Sun 02:59:15 PM 26.8855 51.8375 116° Southeast  Level Estimated
Sun 03:00:15 PM 26.8301 51.9621 117° Southeast  Level Estimated
Sun 03:01:15 PM 26.7747 52.0865 117° Southeast  Level Estimated
Sun 03:02:15 PM 26.7191 52.2108 117° Southeast  Level Estimated
Sun 03:03:15 PM 26.6634 52.3350 117° Southeast  Level Estimated
Sun 03:04:15 PM 26.6076 52.4591 117° Southeast  Level Estimated
Sun 03:05:15 PM 26.5517 52.5830 117° Southeast  Level Estimated
Sun 03:06:15 PM 26.4957 52.7069 117° Southeast  Level Estimated
Sun 03:07:15 PM 26.4396 52.8306 117° Southeast  Level Estimated
Sun 03:08:15 PM 26.3834 52.9542 117° Southeast  Level Estimated
Sun 03:09:15 PM 26.3271 53.0776 117° Southeast  Level Estimated
Sun 03:10:15 PM 26.2707 53.2010 117° Southeast  Level Estimated
Sun 03:11:15 PM 26.2141 53.3242 117° Southeast  Level Estimated
Sun 03:12:15 PM 26.1575 53.4473 117° Southeast  Level Estimated
Sun 03:13:15 PM 26.1007 53.5703 117° Southeast  Level Estimated
Sun 03:14:15 PM 26.0439 53.6932 117° Southeast  Level Estimated
Sun 03:15:15 PM 25.9876 53.8144 117° Southeast  Level Estimated
Sun 03:16:15 PM 25.9313 53.9356 117° Southeast  Level Estimated
Sun 03:17:15 PM 25.8748 54.0566 117° Southeast  Level Estimated
Sun 03:18:15 PM 25.8183 54.1775 117° Southeast  Level Estimated
Sun 03:19:15 PM 25.7617 54.2983 118° Southeast  Level Estimated
Sun 03:20:15 PM 25.7049 54.4190 118° Southeast  Level Estimated
Sun 03:21:15 PM 25.6481 54.5395 118° Southeast  Level Estimated
Sun 03:22:15 PM 25.5911 54.6600 118° Southeast  Level Estimated
Sun 03:23:15 PM 25.5340 54.7803 118° Southeast  Level Estimated
Sun 03:24:15 PM 25.4769 54.9005 118° Southeast  Level Estimated
Sun 03:25:15 PM 25.4197 55.0206 118° Southeast  Level Estimated
Sun 03:26:15 PM 25.3623 55.1405 118° Southeast  Level Estimated
Sun 03:27:15 PM 25.3049 55.2604 118° Southeast  Level Estimated
Sun 03:28:15 PM 25.2474 55.3802 298° West  Level Estimated
Sun 03:29:15 PM 25.3049 55.2604 118° Southeast  Level Estimated
Sun 03:30:15 PM 25.2474 55.3802 298° West  Level Estimated
Sun 03:31:15 PM 25.3049 55.2604 118° Southeast  Level Estimated
Sun 03:32:15 PM 25.2474 55.3802 298° West  Level Estimated
Sun 03:33:15 PM 25.3049 55.2604 118° Southeast  Level Estimated
Sun 03:34:15 PM 25.2474 55.3802 298° West  Level Estimated
Sun 03:35:15 PM 25.3049 55.2604 118° Southeast  Level Estimated
Sun 03:36:15 PM 25.2474 55.3802 298° West  Level Estimated
Sun 03:37:15 PM 25.3049 55.2604 118° Southeast  Level Estimated
Sun 03:38:15 PM 25.2474 55.3802 298° West  Level Estimated
Sun 03:39:15 PM 25.3049 55.2604 118° Southeast  Level Estimated
Sun 03:40:15 PM 25.2474 55.3802 298° West  Level Estimated
Sun 03:41:15 PM 25.3049 55.2604 118° Southeast  Level Estimated
Sun 03:42:15 PM 25.2474 55.3802 298° West  Level Estimated
Sun 03:43:15 PM 25.3049 55.2604 118° Southeast  Level Estimated
Sun 03:44:15 PM 25.2474 55.3802 298° West  Level Estimated
Sun 03:45:15 PM 25.3049 55.2604 118° Southeast  Level Estimated
Sun 03:46:15 PM 25.2474 55.3802 298° West  Level Estimated
Sun 03:47:15 PM 25.3049 55.2604 298° West  Level Estimated

Login

Don't have an account? Register now (free) for customized features, flight alerts, and more!